createdAt,value
2022-09-07T00:01:46.969Z,1.45
2022-09-07T00:04:14.691Z,1.70
2022-09-07T00:06:42.383Z,2.25
2022-09-07T00:09:10.005Z,2.45
2022-09-07T00:11:37.616Z,1.67
2022-09-07T00:14:05.439Z,1.70
2022-09-07T00:16:33.122Z,1.85
2022-09-07T00:19:03.337Z,1.90
2022-09-07T00:21:31.588Z,1.67
2022-09-07T00:23:59.399Z,1.65
2022-09-07T00:26:28.335Z,1.70
2022-09-07T00:28:58.193Z,2.30
2022-09-07T00:31:26.345Z,1.63
2022-09-07T00:33:54.863Z,1.88
2022-09-07T00:36:24.116Z,3.10
2022-09-07T00:38:52.036Z,1.85
2022-09-07T00:41:20.815Z,1.73
2022-09-07T00:43:50.571Z,2.38
2022-09-07T00:46:19.217Z,2.13
2022-09-07T00:48:50.825Z,1.67
2022-09-07T00:51:20.819Z,2.15
2022-09-07T00:53:53.656Z,1.77
2022-09-07T00:56:22.719Z,1.85
2022-09-07T00:58:50.723Z,3.25
2022-09-07T01:01:18.541Z,2.38
2022-09-07T01:03:48.547Z,1.63
2022-09-07T01:06:17.688Z,2.00
2022-09-07T01:08:46.086Z,1.80
2022-09-07T01:11:15.079Z,4.28
2022-09-07T01:13:43.623Z,1.80
2022-09-07T01:16:16.049Z,1.92
2022-09-07T01:18:46.680Z,1.80
2022-09-07T01:21:25.955Z,2.00
2022-09-07T01:24:12.035Z,1.88
2022-09-07T01:27:04.985Z,2.08
2022-09-07T01:29:35.459Z,1.60
2022-09-07T01:32:06.498Z,3.33
2022-09-07T01:34:34.266Z,1.90
2022-09-07T01:37:06.317Z,1.83
2022-09-07T01:39:38.021Z,2.28
2022-09-07T01:42:07.330Z,1.83
2022-09-07T01:44:38.782Z,2.60
2022-09-07T01:47:07.950Z,1.63
2022-09-07T01:49:37.888Z,1.88
2022-09-07T01:52:08.368Z,1.92
2022-09-07T01:54:39.289Z,1.70
2022-09-07T01:57:09.324Z,1.92
2022-09-07T01:59:40.167Z,2.00
2022-09-07T02:02:09.647Z,2.22
2022-09-07T02:04:40.182Z,1.92
2022-09-07T02:07:10.799Z,3.03
2022-09-07T02:09:41.158Z,2.03
2022-09-07T02:12:13.097Z,2.30
2022-09-07T02:14:45.786Z,3.58
2022-09-07T02:17:18.950Z,3.28
2022-09-07T02:19:49.900Z,2.20
2022-09-07T02:22:19.460Z,2.95
2022-09-07T02:24:49.052Z,2.58
2022-09-07T02:27:18.944Z,2.10
2022-09-07T02:29:47.972Z,2.33
2022-09-07T02:32:15.617Z,2.13
2022-09-07T02:34:43.320Z,2.38
2022-09-07T02:37:12.061Z,2.22
2022-09-07T02:39:39.850Z,2.45
2022-09-07T02:42:07.596Z,2.55
2022-09-07T02:44:36.945Z,2.50
2022-09-07T02:47:11.623Z,2.90
2022-09-07T02:49:54.208Z,3.70
2022-09-07T02:52:26.910Z,2.70
2022-09-07T02:54:59.343Z,3.42
2022-09-07T02:57:32.436Z,3.05
2022-09-07T03:00:05.244Z,2.95
2022-09-07T03:02:39.875Z,3.15
2022-09-07T03:05:11.416Z,2.78
2022-09-07T03:07:44.136Z,2.90
2022-09-07T03:10:13.739Z,3.35
2022-09-07T03:12:44.734Z,3.10
2022-09-07T03:15:12.959Z,4.70
2022-09-07T03:17:42.429Z,3.22
2022-09-07T03:20:10.569Z,3.78
2022-09-07T03:22:38.343Z,3.15
2022-09-07T03:25:06.547Z,3.33
2022-09-07T03:27:34.643Z,3.30
2022-09-07T03:30:02.547Z,3.35
2022-09-07T03:32:31.349Z,3.47
2022-09-07T03:35:00.667Z,3.83
2022-09-07T03:37:28.979Z,3.72
2022-09-07T03:39:56.735Z,3.80
2022-09-07T03:42:24.790Z,3.78
2022-09-07T03:44:52.498Z,4.10
2022-09-07T03:47:20.515Z,4.28
2022-09-07T03:49:49.180Z,3.80
2022-09-07T03:52:18.201Z,4.00
2022-09-07T03:54:46.351Z,3.42
2022-09-07T03:57:14.204Z,3.65
2022-09-07T03:59:41.839Z,4.10
2022-09-07T04:02:09.618Z,3.97
2022-09-07T04:04:37.705Z,3.50
2022-09-07T04:07:06.681Z,3.55
2022-09-07T04:09:35.781Z,4.03
2022-09-07T04:12:03.857Z,3.97
2022-09-07T04:14:31.755Z,4.63
2022-09-07T04:16:59.782Z,3.75
2022-09-07T04:19:27.502Z,3.92
2022-09-07T04:21:55.205Z,3.47
2022-09-07T04:24:22.895Z,3.88
2022-09-07T04:26:52.293Z,3.47
2022-09-07T04:29:20.122Z,3.45
2022-09-07T04:31:47.801Z,3.50
2022-09-07T04:34:15.665Z,3.33
2022-09-07T04:36:43.325Z,5.53
2022-09-07T04:39:11.083Z,3.67
2022-09-07T04:41:38.707Z,3.50
2022-09-07T04:44:07.923Z,3.63
2022-09-07T04:46:37.665Z,4.15
2022-09-07T04:49:06.584Z,3.90
2022-09-07T04:51:34.458Z,3.30
2022-09-07T04:54:03.788Z,3.38
2022-09-07T04:56:31.932Z,4.18
2022-09-07T04:58:59.836Z,3.90
2022-09-07T05:01:29.183Z,3.03
2022-09-07T05:03:56.951Z,3.70
2022-09-07T05:06:25.154Z,3.25
2022-09-07T05:08:54.088Z,3.33
2022-09-07T05:11:27.727Z,3.25
2022-09-07T05:13:57.445Z,3.10
2022-09-07T05:16:25.623Z,3.17
2022-09-07T05:18:55.559Z,3.35
2022-09-07T05:21:23.971Z,3.05
2022-09-07T05:23:52.434Z,3.92
2022-09-07T05:26:20.992Z,3.28
2022-09-07T05:28:49.723Z,3.22
2022-09-07T05:31:20.343Z,3.88
2022-09-07T05:36:38.775Z,3.63
2022-09-07T05:39:07.282Z,3.72
2022-09-07T05:41:35.247Z,3.80
2022-09-07T05:46:52.172Z,4.40
2022-09-07T05:49:20.013Z,3.67
2022-09-07T05:51:49.479Z,3.47
2022-09-07T05:54:17.500Z,3.60
2022-09-07T05:56:45.213Z,3.78
2022-09-07T05:59:12.895Z,4.05
2022-09-07T06:01:40.521Z,3.40
2022-09-07T06:04:08.366Z,3.55
2022-09-07T06:06:38.319Z,3.25
2022-09-07T06:09:07.761Z,3.58
2022-09-07T06:11:35.395Z,3.75
2022-09-07T06:14:03.004Z,3.38
2022-09-07T06:16:31.019Z,3.33
2022-09-07T06:18:58.665Z,3.33
2022-09-07T06:21:26.421Z,4.40
2022-09-07T06:23:54.045Z,4.35
2022-09-07T06:26:23.199Z,3.88
2022-09-07T06:28:52.921Z,3.83
2022-09-07T06:31:24.986Z,3.80
2022-09-07T06:33:53.127Z,4.07
2022-09-07T06:36:21.608Z,8.75
2022-09-07T06:38:49.600Z,3.88
2022-09-07T06:44:07.633Z,6.07
2022-09-07T06:49:23.884Z,3.70
2022-09-07T06:51:51.812Z,5.07
2022-09-07T06:57:09.106Z,3.63
2022-09-07T06:59:39.290Z,3.70
2022-09-07T07:02:07.334Z,4.18
2022-09-07T07:04:40.275Z,3.95
2022-09-07T07:07:10.726Z,4.13
2022-09-07T07:09:38.659Z,4.15
2022-09-07T07:12:06.361Z,4.05
2022-09-07T07:14:36.446Z,3.85
2022-09-07T07:17:07.620Z,4.40
2022-09-07T07:19:35.634Z,4.25
2022-09-07T07:24:51.204Z,4.93
2022-09-07T07:27:18.875Z,4.28
2022-09-07T07:29:46.530Z,3.80
2022-09-07T07:32:16.143Z,4.60
2022-09-07T07:34:43.725Z,4.40
2022-09-07T07:37:11.392Z,3.65
2022-09-07T07:42:26.778Z,4.57
2022-09-07T07:47:44.125Z,5.22
2022-09-07T07:55:47.641Z,5.40
2022-09-07T07:58:15.234Z,5.93
2022-09-07T08:00:58.300Z,5.88
2022-09-07T08:03:27.596Z,6.78
2022-09-07T08:05:55.271Z,5.53
2022-09-07T08:08:24.183Z,6.20
2022-09-07T08:10:51.885Z,6.20
2022-09-07T08:13:19.822Z,6.07
2022-09-07T08:15:47.510Z,5.00
2022-09-07T08:18:15.759Z,5.65
2022-09-07T08:20:44.758Z,5.97
2022-09-07T08:23:12.270Z,6.22
2022-09-07T08:25:39.939Z,5.65
2022-09-07T08:28:07.446Z,5.43
2022-09-07T08:30:34.996Z,6.07
2022-09-07T08:33:02.828Z,5.50
2022-09-07T08:35:30.310Z,5.85
2022-09-07T08:37:59.203Z,5.85
2022-09-07T08:40:26.727Z,5.63
2022-09-07T08:42:58.519Z,5.72
2022-09-07T08:45:28.619Z,6.20
2022-09-07T08:47:56.251Z,7.70
2022-09-07T08:50:28.602Z,6.32
2022-09-07T08:52:57.844Z,5.55
2022-09-07T08:55:29.322Z,6.72
2022-09-07T08:58:01.590Z,7.07
2022-09-07T09:00:30.123Z,6.57
2022-09-07T09:05:49.446Z,7.15
2022-09-07T09:08:23.443Z,6.90
2022-09-07T09:10:56.498Z,6.60
2022-09-07T09:13:27.555Z,6.75
2022-09-07T09:16:01.565Z,6.80
2022-09-07T09:18:35.008Z,6.80
2022-09-07T09:21:03.083Z,6.65
2022-09-07T09:23:32.876Z,9.35
2022-09-07T09:26:03.165Z,7.45
2022-09-07T09:28:32.418Z,7.85
2022-09-07T09:31:00.157Z,7.97
2022-09-07T09:33:28.788Z,7.20
2022-09-07T09:35:57.340Z,7.90
2022-09-07T09:38:30.173Z,7.38
2022-09-07T09:40:58.486Z,8.65
2022-09-07T09:43:28.709Z,7.32
2022-09-07T09:46:13.537Z,8.27
2022-09-07T09:48:42.018Z,6.95
2022-09-07T09:53:58.815Z,7.22
2022-09-07T09:56:39.622Z,7.03
2022-09-07T10:05:20.632Z,5.90
2022-09-07T10:07:51.806Z,6.10
2022-09-07T10:10:19.553Z,5.72
2022-09-07T10:12:47.240Z,5.90
2022-09-07T10:15:26.315Z,5.35
2022-09-07T10:17:54.551Z,5.70
2022-09-07T10:20:31.120Z,5.50
2022-09-07T10:22:59.307Z,5.47
2022-09-07T10:25:31.499Z,5.35
2022-09-07T10:28:03.547Z,5.28
2022-09-07T10:30:36.612Z,5.30
2022-09-07T10:33:08.983Z,6.35
2022-09-07T10:35:42.091Z,4.65
2022-09-07T10:38:16.171Z,5.25
2022-09-07T10:40:45.256Z,4.50
2022-09-07T10:43:22.533Z,5.07
2022-09-07T10:46:02.319Z,5.45
2022-09-07T10:48:33.107Z,4.78
2022-09-07T10:51:12.521Z,4.97
2022-09-07T10:53:43.887Z,5.30
2022-09-07T10:56:12.185Z,4.20
2022-09-07T10:59:03.937Z,5.43
2022-09-07T11:01:37.798Z,5.97
2022-09-07T11:04:14.135Z,4.82
2022-09-07T11:06:42.485Z,5.15
2022-09-07T11:09:25.537Z,5.13
2022-09-07T11:12:01.065Z,7.18
2022-09-07T11:14:29.739Z,5.38
2022-09-07T11:17:02.211Z,7.38
2022-09-07T11:19:38.331Z,5.68
2022-09-07T11:22:14.218Z,5.47
2022-09-07T11:24:43.968Z,5.18
2022-09-07T11:27:15.197Z,4.78
2022-09-07T11:29:45.338Z,5.32
2022-09-07T11:32:17.416Z,5.32
2022-09-07T11:34:47.813Z,5.60
2022-09-07T11:37:19.912Z,5.88
2022-09-07T11:39:49.080Z,5.85
2022-09-07T11:45:13.435Z,5.68
2022-09-07T11:47:45.787Z,5.25
2022-09-07T11:50:15.883Z,5.95
2022-09-07T11:52:44.439Z,6.43
2022-09-07T11:55:13.536Z,5.95
2022-09-07T11:57:51.369Z,6.22
2022-09-07T12:00:22.458Z,6.30
2022-09-07T12:03:06.020Z,5.97
2022-09-07T12:05:42.346Z,5.72
2022-09-07T12:08:17.791Z,6.07
2022-09-07T12:11:00.707Z,6.35
2022-09-07T12:13:40.984Z,6.18
2022-09-07T12:16:11.377Z,6.03
2022-09-07T12:18:55.782Z,5.88
2022-09-07T12:21:37.535Z,6.05
2022-09-07T12:24:05.251Z,6.45
2022-09-07T12:26:51.424Z,6.28
2022-09-07T12:29:20.725Z,5.85
2022-09-07T12:34:47.530Z,6.35
2022-09-07T12:37:39.348Z,5.95
2022-09-07T12:40:25.835Z,6.10
2022-09-07T12:43:17.608Z,6.15
2022-09-07T12:45:49.946Z,5.82
2022-09-07T12:48:26.432Z,5.28
2022-09-07T12:50:56.778Z,5.93
2022-09-07T12:53:28.538Z,6.20
2022-09-07T12:56:23.168Z,6.85
2022-09-07T12:59:02.367Z,5.47
2022-09-07T13:01:37.055Z,6.05
2022-09-07T13:04:23.293Z,6.30
2022-09-07T13:07:03.515Z,6.85
2022-09-07T13:09:32.532Z,5.85
2022-09-07T13:12:00.909Z,7.00
2022-09-07T13:14:30.080Z,6.75
2022-09-07T13:17:16.503Z,6.25
2022-09-07T13:20:03.221Z,8.00
2022-09-07T13:22:49.323Z,6.32
2022-09-07T13:25:35.413Z,6.78
2022-09-07T13:28:04.368Z,6.40
2022-09-07T13:30:45.629Z,6.60
2022-09-07T13:33:32.545Z,5.30
2022-09-07T13:36:01.476Z,6.18
2022-09-07T13:38:29.715Z,6.38
2022-09-07T13:41:00.525Z,5.95
2022-09-07T13:43:28.121Z,6.40
2022-09-07T13:46:01.281Z,6.28
2022-09-07T13:48:31.784Z,6.45
2022-09-07T13:51:04.551Z,5.80
2022-09-07T13:53:37.457Z,5.95
2022-09-07T13:56:11.506Z,5.25
2022-09-07T13:58:41.089Z,6.22
2022-09-07T14:01:16.901Z,5.70
2022-09-07T14:03:47.627Z,6.82
2022-09-07T14:06:27.908Z,5.60
2022-09-07T14:08:57.073Z,5.88
2022-09-07T14:11:26.283Z,6.53
2022-09-07T14:14:09.929Z,5.28
2022-09-07T14:16:39.016Z,6.85
2022-09-07T14:19:14.311Z,5.63
2022-09-07T14:21:41.913Z,6.05
2022-09-07T14:24:18.785Z,5.50
2022-09-07T14:26:46.884Z,5.60
2022-09-07T14:29:22.500Z,6.55
2022-09-07T14:31:51.816Z,5.22
2022-09-07T14:34:20.104Z,4.50
2022-09-07T14:36:48.093Z,5.18
2022-09-07T14:39:17.024Z,4.90
2022-09-07T14:41:45.101Z,5.03
2022-09-07T14:44:28.924Z,4.80
2022-09-07T14:46:58.044Z,4.80
2022-09-07T14:49:25.661Z,4.70
2022-09-07T14:51:53.863Z,5.05
2022-09-07T14:54:22.409Z,4.43
2022-09-07T14:57:01.706Z,5.25
2022-09-07T14:59:36.482Z,5.43
2022-09-07T15:02:23.927Z,5.28
2022-09-07T15:05:10.590Z,4.88
2022-09-07T15:07:40.920Z,4.53
2022-09-07T15:10:15.117Z,5.18
2022-09-07T15:12:43.674Z,4.72
2022-09-07T15:15:12.135Z,5.25
2022-09-07T15:17:43.289Z,4.90
2022-09-07T15:20:30.060Z,4.90
2022-09-07T15:22:59.211Z,5.22
2022-09-07T15:25:26.718Z,5.07
2022-09-07T15:27:54.756Z,5.25
2022-09-07T15:30:22.576Z,5.28
2022-09-07T15:32:50.257Z,4.70
2022-09-07T15:35:17.810Z,5.22
2022-09-07T15:38:02.433Z,5.47
2022-09-07T15:40:37.306Z,4.80
2022-09-07T15:43:16.341Z,5.25
2022-09-07T15:45:47.728Z,4.90
2022-09-07T15:48:15.970Z,5.35
2022-09-07T15:50:43.576Z,5.32
2022-09-07T15:54:07.367Z,4.75
2022-09-07T15:56:00.579Z,6.93
2022-09-07T15:58:30.865Z,4.88
2022-09-07T16:03:51.321Z,5.30
2022-09-07T16:06:21.763Z,4.60
2022-09-07T16:08:51.498Z,5.70
2022-09-07T16:11:23.822Z,5.10
2022-09-07T16:13:55.755Z,5.60
2022-09-07T16:17:25.423Z,5.22
2022-09-07T16:19:13.653Z,5.50
2022-09-07T16:21:41.537Z,5.32
2022-09-07T16:24:09.746Z,5.60
2022-09-07T16:26:38.634Z,4.88
2022-09-07T16:29:06.129Z,5.60
2022-09-07T16:31:34.000Z,6.00
2022-09-07T16:34:02.642Z,5.68
2022-09-07T16:36:30.863Z,6.05
2022-09-07T16:39:00.352Z,5.50
2022-09-07T16:41:29.350Z,6.03
2022-09-07T16:43:58.545Z,5.82
2022-09-07T16:46:27.886Z,6.10
2022-09-07T16:48:56.081Z,5.72
2022-09-07T16:51:24.747Z,5.72
2022-09-07T16:53:54.151Z,5.82
2022-09-07T16:56:22.772Z,5.65
2022-09-07T16:58:51.692Z,5.68
2022-09-07T17:01:21.814Z,5.22
2022-09-07T17:03:50.304Z,6.95
2022-09-07T17:06:18.688Z,6.75
2022-09-07T17:08:46.242Z,6.03
2022-09-07T17:11:15.705Z,6.15
2022-09-07T17:13:44.436Z,5.97
2022-09-07T17:16:12.837Z,6.03
2022-09-07T17:21:31.235Z,6.75
2022-09-07T17:24:00.858Z,6.35
2022-09-07T17:26:28.572Z,6.93
2022-09-07T17:29:00.301Z,7.72
2022-09-07T17:34:19.376Z,7.10
2022-09-07T17:36:46.919Z,6.82
2022-09-07T17:39:16.800Z,7.20
2022-09-07T17:41:45.994Z,8.18
2022-09-07T17:44:13.497Z,7.05
2022-09-07T17:46:41.087Z,7.13
2022-09-07T17:49:11.948Z,7.65
2022-09-07T17:51:40.903Z,7.65
2022-09-07T17:54:10.918Z,7.00
2022-09-07T17:56:40.660Z,7.82
2022-09-07T18:01:56.579Z,7.68
2022-09-07T18:04:24.874Z,8.88
2022-09-07T18:06:54.127Z,7.95
2022-09-07T18:09:22.016Z,7.90
2022-09-07T18:11:50.769Z,9.48
2022-09-07T18:14:18.762Z,7.88
2022-09-07T18:16:48.809Z,8.25
2022-09-07T18:19:18.325Z,8.27
2022-09-07T18:21:47.658Z,8.27
2022-09-07T18:24:17.767Z,8.82
2022-09-07T18:26:50.418Z,8.52
2022-09-07T18:29:28.883Z,9.35
2022-09-07T18:31:57.941Z,9.52
2022-09-07T18:34:25.539Z,8.70
2022-09-07T18:36:53.798Z,9.93
2022-09-07T18:39:23.884Z,9.30
2022-09-07T18:41:51.816Z,10.68
2022-09-07T18:47:15.441Z,10.60
2022-09-07T18:49:48.569Z,9.93
2022-09-07T18:55:05.778Z,16.05
2022-09-07T18:57:34.123Z,17.77
2022-09-07T19:00:01.685Z,12.82
2022-09-07T19:02:29.637Z,13.00
2022-09-07T19:07:44.748Z,10.85
2022-09-07T19:10:14.585Z,12.00
2022-09-07T19:12:45.626Z,14.38
2022-09-07T19:15:14.068Z,12.63
2022-09-07T19:17:41.548Z,12.18
2022-09-07T19:20:09.634Z,12.68
2022-09-07T19:22:37.126Z,12.70
2022-09-07T19:25:05.971Z,12.13
2022-09-07T19:27:34.899Z,13.07
2022-09-07T19:30:02.580Z,13.02
2022-09-07T19:32:30.251Z,13.20
2022-09-07T19:34:57.771Z,14.88
2022-09-07T19:37:26.203Z,12.25
2022-09-07T19:39:54.897Z,12.85
2022-09-07T19:42:23.621Z,12.48
2022-09-07T19:44:52.736Z,12.95
2022-09-07T19:47:20.876Z,12.20
2022-09-07T19:49:48.466Z,12.85
2022-09-07T19:52:16.521Z,12.32
2022-09-07T19:54:44.137Z,13.02
2022-09-07T19:57:11.693Z,12.45
2022-09-07T19:59:39.475Z,13.73
2022-09-07T20:02:09.723Z,13.63
2022-09-07T20:04:37.387Z,13.02
2022-09-07T20:07:05.555Z,12.10
2022-09-07T20:09:33.391Z,13.77
2022-09-07T20:12:01.721Z,12.35
2022-09-07T20:14:29.340Z,13.98
2022-09-07T20:16:57.139Z,12.25
2022-09-07T20:19:26.293Z,12.82
2022-09-07T20:21:55.580Z,18.35
2022-09-07T20:24:23.494Z,16.17
2022-09-07T20:26:50.996Z,13.38
2022-09-07T20:29:34.075Z,12.88
2022-09-07T20:32:02.625Z,13.38
2022-09-07T20:34:32.043Z,13.30
2022-09-07T20:36:59.587Z,13.32
2022-09-07T20:39:27.087Z,13.40
2022-09-07T20:41:55.097Z,13.30
2022-09-07T20:44:22.689Z,13.25
2022-09-07T20:46:50.288Z,13.35
2022-09-07T20:49:17.796Z,13.98
2022-09-07T20:51:46.647Z,14.05
2022-09-07T20:54:14.182Z,14.73
2022-09-07T20:56:41.700Z,13.35
2022-09-07T20:59:09.310Z,13.15
2022-09-07T21:01:37.047Z,13.35
2022-09-07T21:04:05.997Z,13.52
2022-09-07T21:06:33.744Z,14.15
2022-09-07T21:09:02.780Z,14.35
2022-09-07T21:11:31.084Z,13.88
2022-09-07T21:13:59.420Z,13.90
2022-09-07T21:16:27.523Z,14.18
2022-09-07T21:18:55.943Z,13.77
2022-09-07T21:21:24.128Z,12.98
2022-09-07T21:23:55.561Z,14.93
2022-09-07T21:26:25.007Z,14.48
2022-09-07T21:28:56.203Z,13.73
2022-09-07T21:31:24.312Z,13.57
2022-09-07T21:33:54.407Z,14.88
2022-09-07T21:36:22.040Z,15.68
2022-09-07T21:38:49.967Z,13.40
2022-09-07T21:41:19.440Z,15.68
2022-09-07T21:43:48.427Z,14.85
2022-09-07T21:46:17.131Z,15.00
2022-09-07T21:48:45.378Z,15.23
2022-09-07T21:51:13.053Z,14.68
2022-09-07T21:53:40.968Z,14.90
2022-09-07T21:56:10.859Z,14.00
2022-09-07T21:58:39.730Z,15.20
2022-09-07T22:01:12.849Z,15.48
2022-09-07T22:03:40.593Z,16.52
2022-09-07T22:06:08.233Z,15.70
2022-09-07T22:08:35.919Z,16.42
2022-09-07T22:11:04.219Z,15.18
2022-09-07T22:13:31.869Z,15.43
2022-09-07T22:15:59.518Z,15.75
2022-09-07T22:18:29.824Z,16.67
2022-09-07T22:21:05.187Z,16.63
2022-09-07T22:23:33.474Z,17.17
2022-09-07T22:26:01.105Z,17.77
2022-09-07T22:28:29.611Z,17.85
2022-09-07T22:30:57.509Z,17.38
2022-09-07T22:33:25.123Z,17.15
2022-09-07T22:35:54.051Z,16.35
2022-09-07T22:38:21.596Z,16.35
2022-09-07T22:40:49.059Z,17.08
2022-09-07T22:43:16.650Z,15.75
2022-09-07T22:45:44.231Z,17.55
2022-09-07T22:48:11.822Z,16.85
2022-09-07T22:50:39.713Z,17.02
2022-09-07T22:53:08.555Z,16.48
2022-09-07T22:55:39.008Z,16.52
2022-09-07T22:58:06.510Z,15.77
2022-09-07T23:00:36.216Z,17.15
2022-09-07T23:03:04.895Z,15.80
2022-09-07T23:05:36.673Z,15.90
2022-09-07T23:08:04.388Z,16.23
2022-09-07T23:10:34.443Z,16.42
2022-09-07T23:13:02.499Z,18.83
2022-09-07T23:15:30.388Z,18.25
2022-09-07T23:17:57.955Z,17.45
2022-09-07T23:20:25.746Z,18.85
2022-09-07T23:22:53.489Z,18.77
2022-09-07T23:25:21.382Z,18.40
2022-09-07T23:27:50.431Z,19.67
2022-09-07T23:30:17.992Z,19.08
2022-09-07T23:32:45.577Z,20.67
2022-09-07T23:35:16.524Z,20.90
2022-09-07T23:37:44.287Z,18.48
2022-09-07T23:40:12.136Z,19.33
2022-09-07T23:42:39.759Z,17.77
2022-09-07T23:45:09.465Z,19.55
2022-09-07T23:47:37.008Z,19.58
2022-09-07T23:50:04.913Z,19.33
2022-09-07T23:52:32.488Z,19.77
2022-09-07T23:55:00.043Z,19.80
2022-09-07T23:57:27.876Z,19.50
2022-09-07T23:59:55.696Z,19.27
